SPSO

Capitán FAP Renán Elías Olivera International Airport

Pisco, Peru
TAF AMD SPSO 181210Z 1812/1912 23005KT 3000 DZ BR OVC007 TX19/1818Z TN15/1910Z BECMG 1814/1816 5000 BR OVC012 FM181700 28007KT 8000 NSW OVC017 FM182100 24012KT 9999 SCT022 FM190200 21005KT 8000 OVC015
Issued Valid From Valid To
Jun-18 @ 12:10 UTC
(an hour ago)
Jun-18 @ 12:00 UTC
(an hour ago)
Jun-19 @ 12:00 UTC
(in 23 hours)
Jun-18 @ 12:00 to Jun-18 @ 14:00
TAF AMD SPSO 181210Z 1812/1912 23005KT 3000 DZ BR OVC007 TX19/1818Z TN15/1910Z
Wind Visibility Clouds Conditions
230° at 5 knots 2,993 meters
  • Overcast at 700' AGL
  • Drizzle
  • Mist
Becoming Jun-18 @ 14:00 to Jun-18 @ 17:00
BECMG 1814/1816 5000 BR OVC012
Wind Visibility Clouds Conditions
230° at 5 knots 5,005 meters
  • Overcast at 1,200' AGL
  • Mist
From Jun-18 @ 17:00 to Jun-18 @ 21:00
FM181700 28007KT 8000 NSW OVC017
Wind Visibility Clouds Conditions
280° at 7 knots 7,998 meters
  • Overcast at 1,700' AGL
From Jun-18 @ 21:00 to Jun-19 @ 02:00
FM182100 24012KT 9999 SCT022
Wind Visibility Clouds
240° at 12 knots 10,000+ meters
  • Scattered at 2,200' AGL
From Jun-19 @ 02:00 to Jun-19 @ 12:00
FM190200 21005KT 8000 OVC015
Wind Visibility Clouds
210° at 5 knots 7,998 meters
  • Overcast at 1,500' AGL
TAF AMD SPSO 181210Z 1812/1912 23005KT 3000 DZ BR OVC007 TX19/1818Z TN15/1910Z BECMG 1814/1816 5000 BR OVC012 FM181700 28007KT 8000 NSW OVC017 FM182100 24012KT 9999 SCT022 FM190200 21005KT 8000 OVC015
Issued Jun-18 @ 12:10 UTC
(an hour ago)
Valid From Jun-18 @ 12:00 UTC
(an hour ago)
Valid To Jun-19 @ 12:00 UTC
(in 23 hours)
Jun-18 @ 12:00 - Jun-18 @ 14:00
Wind Visibility
230° at 5 knots 2,993 meters
Clouds
  • Overcast at 700' AGL
Conditions
  • Drizzle
  • Mist
Becoming Jun-18 @ 14:00 - Jun-18 @ 17:00
Wind Visibility
230° at 5 knots 5,005 meters
Clouds
  • Overcast at 1,200' AGL
Conditions
  • Mist
From Jun-18 @ 17:00 - Jun-18 @ 21:00
Wind Visibility
280° at 7 knots 7,998 meters
Clouds
  • Overcast at 1,700' AGL
Conditions
From Jun-18 @ 21:00 - Jun-19 @ 02:00
Wind Visibility
240° at 12 knots 10,000+ meters
Clouds
  • Scattered at 2,200' AGL
From Jun-19 @ 02:00 - Jun-19 @ 12:00
Wind Visibility
210° at 5 knots 7,998 meters
Clouds
  • Overcast at 1,500' AGL